Ouray, Utah
Current Conditions -  °F | °C
As of 5:53 PM on Friday 24 Oct 2014 (Local Time) from KVEL Reporting Station
Clear Clear  
Wind Chill: 67°   Ceiling: Unl
Heat Index: 67°   Visibility: 10mi
Dew Point: 35°   Wind: 3mph
Humidity: 31%   Direction: 40°NE
Pressure: 30.19"   Gusts: NA
Location:  40.2958°N, 109.84°W
Report Text: KVEL 242353Z AUTO 04003KT 10SM CLR 19/02 A3019 RMK AO2 SLP194 T01940017 10211 20139 56007
Loading
Personal Weather Stations






























Interactive Weather Map
Tropical Storm Tracking
New forecast layout! Learn more

10-Day Weather Forecast

Advertisements
Track Severe Weather on mobile